createdAt,value
2018-10-09T00:00:23.430Z,31.63
2018-10-09T00:02:51.372Z,22.27
2018-10-09T00:05:18.315Z,23.00
2018-10-09T00:07:46.257Z,27.07
2018-10-09T00:10:14.241Z,25.23
2018-10-09T00:12:41.211Z,26.27
2018-10-09T00:15:08.175Z,25.47
2018-10-09T00:17:35.201Z,24.10
2018-10-09T00:20:02.191Z,25.27
2018-10-09T00:22:29.194Z,22.63
2018-10-09T00:24:56.198Z,28.20
2018-10-09T00:27:23.124Z,24.90
2018-10-09T00:29:50.054Z,26.87
2018-10-09T00:32:17.201Z,25.23
2018-10-09T00:34:44.107Z,27.50
2018-10-09T00:37:11.086Z,29.37
2018-10-09T00:39:38.038Z,30.47
2018-10-09T00:42:04.926Z,28.93
2018-10-09T00:44:31.877Z,33.15
2018-10-09T00:46:59.837Z,31.82
2018-10-09T00:49:26.749Z,29.90
2018-10-09T00:51:53.716Z,26.80
2018-10-09T00:54:20.586Z,28.37
2018-10-09T00:56:47.553Z,32.13
2018-10-09T00:59:17.610Z,26.90
2018-10-09T01:01:44.570Z,25.30
2018-10-09T01:04:11.534Z,23.57
2018-10-09T01:06:38.422Z,24.00
2018-10-09T01:09:06.482Z,24.63
2018-10-09T01:11:33.365Z,23.47
2018-10-09T01:16:40.009Z,24.10
2018-10-09T01:19:06.854Z,26.57
2018-10-09T01:21:33.938Z,30.17
2018-10-09T01:24:01.801Z,30.17
2018-10-09T01:26:28.654Z,28.90
2018-10-09T01:28:55.591Z,31.70
2018-10-09T01:31:22.542Z,26.40
2018-10-09T01:33:49.513Z,28.27
2018-10-09T01:36:16.427Z,27.97
2018-10-09T01:38:43.366Z,28.03
2018-10-09T01:41:10.214Z,32.80
2018-10-09T01:43:37.158Z,31.67
2018-10-09T01:46:04.101Z,34.43
2018-10-09T01:48:31.987Z,36.40
2018-10-09T01:50:58.917Z,34.53
2018-10-09T01:53:25.897Z,40.07
2018-10-09T01:55:53.882Z,38.87
2018-10-09T01:58:20.801Z,32.80
2018-10-09T02:00:47.723Z,31.23
2018-10-09T02:03:14.661Z,34.43
2018-10-09T02:05:41.609Z,29.60
2018-10-09T02:08:08.550Z,34.50
2018-10-09T02:10:35.413Z,30.57
2018-10-09T02:13:02.354Z,33.83
2018-10-09T02:15:29.283Z,27.70
2018-10-09T02:17:56.230Z,29.40
2018-10-09T02:20:23.173Z,31.20
2018-10-09T02:22:50.115Z,33.77
2018-10-09T02:25:16.973Z,37.00
2018-10-09T02:27:43.906Z,38.50
2018-10-09T02:30:10.859Z,38.60
2018-10-09T02:32:37.794Z,42.63
2018-10-09T02:35:04.922Z,41.23
2018-10-09T02:37:31.791Z,50.00
2018-10-09T02:39:59.680Z,51.27
2018-10-09T02:42:26.608Z,49.77
2018-10-09T02:44:53.569Z,51.33
2018-10-09T02:47:20.502Z,59.93
2018-10-09T02:49:48.414Z,46.20
2018-10-09T02:52:15.314Z,43.53
2018-10-09T02:54:42.289Z,50.33
2018-10-09T02:57:09.219Z,48.57
2018-10-09T02:59:36.135Z,51.17
2018-10-09T03:02:03.089Z,41.87
2018-10-09T03:04:30.054Z,44.07
2018-10-09T03:06:56.970Z,46.10
2018-10-09T03:09:24.851Z,54.80
2018-10-09T03:11:51.781Z,47.17
2018-10-09T03:14:18.734Z,45.03
2018-10-09T03:16:45.565Z,50.97
2018-10-09T03:19:12.510Z,54.30
2018-10-09T03:21:39.370Z,48.23
2018-10-09T03:24:06.433Z,53.60
2018-10-09T03:26:33.353Z,56.50
2018-10-09T03:29:00.290Z,50.70
2018-10-09T03:31:27.245Z,44.30
2018-10-09T03:33:54.185Z,52.20
2018-10-09T03:36:21.126Z,48.57
2018-10-09T03:38:47.969Z,61.20
2018-10-09T03:41:14.922Z,51.03
2018-10-09T03:43:41.937Z,50.00
2018-10-09T03:46:08.834Z,53.53
2018-10-09T03:48:36.274Z,48.43
2018-10-09T03:51:03.226Z,52.00
2018-10-09T03:53:30.178Z,47.30
2018-10-09T03:55:57.194Z,47.57
2018-10-09T03:58:24.137Z,50.50
2018-10-09T04:00:50.998Z,48.50
2018-10-09T04:03:17.954Z,47.87
2018-10-09T04:05:44.897Z,46.47
2018-10-09T04:08:11.833Z,42.87
2018-10-09T04:10:38.766Z,46.77
2018-10-09T04:13:05.736Z,45.70
2018-10-09T04:15:33.061Z,41.77
2018-10-09T04:18:00.055Z,47.43
2018-10-09T04:20:26.954Z,47.87
2018-10-09T04:22:53.901Z,42.17
2018-10-09T04:25:20.851Z,43.20
2018-10-09T04:27:47.786Z,43.00
2018-10-09T04:30:14.741Z,38.67
2018-10-09T04:32:41.673Z,38.83
2018-10-09T04:35:08.605Z,57.43
2018-10-09T04:37:35.466Z,43.73
2018-10-09T04:40:02.411Z,44.13
2018-10-09T04:42:29.298Z,42.33
2018-10-09T04:44:56.197Z,43.77
2018-10-09T04:47:23.157Z,47.77
2018-10-09T04:49:50.126Z,52.33
2018-10-09T04:52:17.034Z,45.83
2018-10-09T04:54:43.978Z,38.60
2018-10-09T04:57:11.018Z,39.70
2018-10-09T04:59:38.026Z,42.53
2018-10-09T05:02:04.910Z,47.40
2018-10-09T05:04:31.762Z,38.10
2018-10-09T05:06:58.746Z,43.73
2018-10-09T05:09:25.655Z,46.40
2018-10-09T05:11:52.602Z,42.33
2018-10-09T05:14:19.574Z,40.37
2018-10-09T05:16:46.526Z,39.90
2018-10-09T05:19:13.438Z,41.93
2018-10-09T05:21:40.381Z,44.13
2018-10-09T05:24:07.314Z,42.80
2018-10-09T05:26:34.274Z,42.10
2018-10-09T05:29:01.299Z,39.70
2018-10-09T05:31:28.185Z,43.77
2018-10-09T05:33:55.199Z,47.40
2018-10-09T05:36:22.183Z,42.53
2018-10-09T05:38:49.093Z,46.40
2018-10-09T05:41:16.026Z,46.10
2018-10-09T05:43:42.898Z,50.93
2018-10-09T05:46:09.821Z,50.40
2018-10-09T05:48:36.879Z,41.47
2018-10-09T05:51:03.846Z,38.97
2018-10-09T05:53:30.770Z,38.63
2018-10-09T05:55:57.738Z,37.53
2018-10-09T05:58:24.663Z,35.90
2018-10-09T06:00:51.627Z,36.70
2018-10-09T06:03:18.554Z,30.30
2018-10-09T06:05:45.508Z,36.90
2018-10-09T06:08:12.811Z,40.57
2018-10-09T06:10:39.691Z,39.10
2018-10-09T06:13:06.621Z,45.10
2018-10-09T06:15:33.638Z,43.77
2018-10-09T06:18:00.533Z,36.03
2018-10-09T06:20:27.469Z,34.97
2018-10-09T06:22:54.417Z,35.87
2018-10-09T06:25:21.726Z,34.67
2018-10-09T06:27:48.654Z,30.60
2018-10-09T06:30:15.550Z,30.53
2018-10-09T06:32:42.498Z,29.03
2018-10-09T06:35:09.486Z,37.17
2018-10-09T06:37:36.390Z,28.57
2018-10-09T06:40:03.393Z,37.27
2018-10-09T06:42:30.297Z,26.23
2018-10-09T06:44:57.227Z,28.87
2018-10-09T06:47:24.252Z,25.13
2018-10-09T06:49:51.209Z,31.63
2018-10-09T06:52:19.594Z,27.27
2018-10-09T06:54:46.614Z,28.20
2018-10-09T06:57:13.474Z,27.87
2018-10-09T06:59:40.459Z,29.30
2018-10-09T07:02:07.360Z,27.40
2018-10-09T07:04:34.290Z,25.20
2018-10-09T07:07:01.219Z,27.37
2018-10-09T07:09:28.222Z,30.60
2018-10-09T07:11:55.115Z,30.50
2018-10-09T07:14:22.055Z,35.20
2018-10-09T07:16:49.042Z,38.43
2018-10-09T07:19:15.982Z,36.30
2018-10-09T07:21:42.954Z,42.00
2018-10-09T07:24:09.835Z,34.00
2018-10-09T07:26:36.770Z,36.67
2018-10-09T07:29:03.631Z,41.63
2018-10-09T07:31:30.600Z,41.90
2018-10-09T07:33:57.512Z,50.00
2018-10-09T07:36:24.463Z,51.20
2018-10-09T07:38:51.411Z,45.97
2018-10-09T07:41:18.338Z,49.73
2018-10-09T07:43:45.222Z,48.43
2018-10-09T07:46:12.061Z,48.97
2018-10-09T07:48:39.098Z,46.43
2018-10-09T07:51:06.215Z,49.20
2018-10-09T07:53:33.183Z,47.77
2018-10-09T07:56:00.116Z,52.20
2018-10-09T07:58:27.075Z,45.90
2018-10-09T08:00:53.900Z,54.97
2018-10-09T08:03:20.781Z,52.60
2018-10-09T08:05:47.889Z,46.77
2018-10-09T08:08:15.139Z,51.23
2018-10-09T08:10:42.039Z,52.00
2018-10-09T08:13:08.950Z,48.63
2018-10-09T08:15:35.885Z,50.83
2018-10-09T08:18:03.770Z,45.63
2018-10-09T08:20:30.691Z,50.43
2018-10-09T08:22:57.683Z,53.97
2018-10-09T08:25:24.596Z,52.37
2018-10-09T08:27:51.565Z,51.43
2018-10-09T08:30:18.470Z,51.40
2018-10-09T08:32:45.491Z,50.67
2018-10-09T08:35:12.362Z,52.90
2018-10-09T08:37:39.313Z,50.63
2018-10-09T08:40:07.276Z,49.80
2018-10-09T08:42:34.178Z,45.93
2018-10-09T08:45:01.089Z,55.43
2018-10-09T08:47:28.008Z,48.63
2018-10-09T08:49:54.851Z,53.03
2018-10-09T08:52:21.827Z,54.53
2018-10-09T08:54:48.767Z,48.73
2018-10-09T08:57:16.174Z,46.77
2018-10-09T08:59:43.058Z,47.33
2018-10-09T09:02:11.007Z,44.40
2018-10-09T09:04:37.967Z,53.37
2018-10-09T09:07:05.450Z,47.00
2018-10-09T09:09:32.362Z,45.03
2018-10-09T09:11:59.298Z,50.13
2018-10-09T09:14:26.242Z,46.90
2018-10-09T09:16:53.191Z,42.63
2018-10-09T09:19:20.139Z,54.20
2018-10-09T09:21:47.135Z,49.83
2018-10-09T09:24:14.031Z,46.97
2018-10-09T09:26:41.366Z,43.42
2018-10-09T09:29:08.225Z,40.73
2018-10-09T09:31:35.223Z,47.13
2018-10-09T09:34:02.115Z,47.10
2018-10-09T09:36:29.668Z,42.40
2018-10-09T09:38:57.532Z,40.30
2018-10-09T09:41:24.394Z,42.90
2018-10-09T09:43:51.322Z,44.83
2018-10-09T09:46:18.555Z,39.27
2018-10-09T09:48:45.322Z,37.10
2018-10-09T09:51:12.267Z,39.77
2018-10-09T09:53:39.218Z,36.07
2018-10-09T09:56:06.215Z,43.13
2018-10-09T09:58:33.320Z,41.00
2018-10-09T10:01:05.759Z,43.50
2018-10-09T10:03:32.633Z,39.17
2018-10-09T10:05:59.575Z,37.83
2018-10-09T10:08:26.513Z,42.77
2018-10-09T10:10:53.459Z,37.17
2018-10-09T10:13:20.391Z,36.17
2018-10-09T10:15:47.418Z,41.80
2018-10-09T10:18:16.007Z,39.20
2018-10-09T10:20:42.889Z,39.97
2018-10-09T10:23:10.739Z,42.30
2018-10-09T10:25:38.611Z,53.30
2018-10-09T10:28:05.892Z,46.43
2018-10-09T10:30:32.806Z,41.90
2018-10-09T10:32:59.743Z,48.67
2018-10-09T10:35:26.681Z,42.17
2018-10-09T10:37:53.839Z,45.97
2018-10-09T10:40:20.782Z,44.50
2018-10-09T10:42:47.728Z,34.73
2018-10-09T10:45:14.679Z,38.90
2018-10-09T10:47:41.672Z,35.50
2018-10-09T10:50:08.563Z,34.73
2018-10-09T10:52:35.508Z,31.87
2018-10-09T10:55:02.461Z,34.00
2018-10-09T10:57:29.294Z,29.03
2018-10-09T10:59:56.266Z,31.70
2018-10-09T11:02:23.182Z,29.67
2018-10-09T11:04:50.143Z,34.83
2018-10-09T11:07:17.083Z,33.40
2018-10-09T11:09:44.014Z,30.63
2018-10-09T11:12:10.862Z,31.27
2018-10-09T11:14:37.876Z,34.73
2018-10-09T11:17:04.767Z,28.70
2018-10-09T11:19:31.690Z,32.20
2018-10-09T11:22:00.591Z,30.20
2018-10-09T11:24:27.547Z,26.73
2018-10-09T11:26:54.479Z,32.43
2018-10-09T11:29:21.472Z,28.80
2018-10-09T11:31:48.367Z,27.73
2018-10-09T11:34:15.222Z,28.33
2018-10-09T11:36:42.150Z,30.13
2018-10-09T11:39:09.391Z,34.87
2018-10-09T11:41:36.243Z,31.93
2018-10-09T11:44:03.091Z,29.33
2018-10-09T11:46:30.957Z,31.87
2018-10-09T11:48:57.907Z,33.00
2018-10-09T11:51:24.839Z,31.93
2018-10-09T11:53:52.737Z,34.83
2018-10-09T11:56:19.667Z,30.30
2018-10-09T11:58:46.799Z,32.63
2018-10-09T12:01:13.558Z,29.10
2018-10-09T12:03:40.508Z,32.37
2018-10-09T12:06:07.447Z,32.63
2018-10-09T12:08:34.387Z,28.33
2018-10-09T12:11:01.647Z,29.80
2018-10-09T12:13:28.579Z,32.70
2018-10-09T12:15:55.613Z,37.87
2018-10-09T12:18:22.470Z,37.23
2018-10-09T12:20:49.423Z,33.80
2018-10-09T12:23:16.446Z,32.23
2018-10-09T12:25:43.323Z,35.77
2018-10-09T12:28:10.266Z,35.27
2018-10-09T12:30:37.199Z,34.90
2018-10-09T12:33:04.243Z,33.33
2018-10-09T12:35:31.087Z,43.03
2018-10-09T12:37:58.027Z,32.83
2018-10-09T12:40:24.868Z,33.87
2018-10-09T12:42:51.741Z,38.43
2018-10-09T12:45:18.858Z,45.60
2018-10-09T12:47:45.723Z,38.87
2018-10-09T12:50:12.659Z,43.83
2018-10-09T12:52:39.595Z,33.23
2018-10-09T12:55:07.075Z,58.47
2018-10-09T12:57:34.006Z,38.80
2018-10-09T13:00:00.959Z,35.37
2018-10-09T13:02:27.900Z,56.10
2018-10-09T13:04:54.846Z,41.43
2018-10-09T13:07:21.809Z,39.57
2018-10-09T13:09:48.747Z,33.80
2018-10-09T13:12:15.675Z,36.37
2018-10-09T13:14:42.635Z,39.10
2018-10-09T13:17:09.635Z,44.57
2018-10-09T13:19:36.510Z,35.43
2018-10-09T13:22:03.769Z,39.10
2018-10-09T13:24:30.403Z,44.30
2018-10-09T13:26:57.355Z,31.40
2018-10-09T13:29:24.295Z,31.33
2018-10-09T13:31:51.230Z,35.77
2018-10-09T13:34:18.799Z,39.93
2018-10-09T13:36:45.675Z,31.20
2018-10-09T13:39:12.582Z,48.33
2018-10-09T13:41:39.524Z,38.50
2018-10-09T13:44:06.798Z,35.07
2018-10-09T13:46:33.624Z,31.97
2018-10-09T13:49:00.563Z,37.13
2018-10-09T13:51:27.514Z,36.30
2018-10-09T13:53:54.446Z,29.50
2018-10-09T13:56:21.390Z,32.57
2018-10-09T13:58:48.355Z,32.17
2018-10-09T14:01:15.308Z,37.20
2018-10-09T14:03:42.239Z,35.63
2018-10-09T14:06:09.222Z,38.03
2018-10-09T14:08:36.179Z,36.10
2018-10-09T14:11:03.079Z,36.47
2018-10-09T14:13:30.025Z,39.47
2018-10-09T14:15:56.966Z,41.37
2018-10-09T14:18:23.922Z,34.90
2018-10-09T14:20:50.871Z,34.77
2018-10-09T14:23:17.887Z,33.87
2018-10-09T14:25:44.739Z,39.60
2018-10-09T14:28:11.686Z,34.63
2018-10-09T14:30:38.624Z,40.30
2018-10-09T14:33:05.590Z,40.40
2018-10-09T14:35:32.523Z,36.93
2018-10-09T14:37:59.451Z,37.43
2018-10-09T14:40:26.399Z,40.43
2018-10-09T14:42:53.347Z,43.07
2018-10-09T14:45:20.435Z,32.97
2018-10-09T14:47:47.342Z,34.30
2018-10-09T14:50:14.278Z,31.87
2018-10-09T14:52:41.226Z,32.47
2018-10-09T14:55:08.178Z,32.33
2018-10-09T14:57:35.160Z,33.73
2018-10-09T15:00:02.128Z,33.83
2018-10-09T15:02:29.019Z,36.60
2018-10-09T15:04:55.951Z,32.23
2018-10-09T15:07:22.909Z,29.50
2018-10-09T15:09:49.848Z,25.70
2018-10-09T15:12:16.798Z,29.80
2018-10-09T15:14:43.781Z,26.33
2018-10-09T15:17:10.738Z,26.77
2018-10-09T15:19:37.623Z,28.60
2018-10-09T15:22:04.479Z,25.90
2018-10-09T15:24:31.431Z,29.40
2018-10-09T15:26:58.375Z,25.67
2018-10-09T15:29:25.326Z,37.57
2018-10-09T15:31:52.257Z,24.50
2018-10-09T15:34:19.199Z,24.63
2018-10-09T15:36:46.297Z,28.93
2018-10-09T15:39:13.210Z,26.20
2018-10-09T15:41:40.399Z,29.17
2018-10-09T15:44:07.394Z,33.33
2018-10-09T15:46:34.428Z,25.67
2018-10-09T15:51:28.923Z,22.47
2018-10-09T15:53:58.099Z,27.63
2018-10-09T15:56:25.042Z,27.43
2018-10-09T15:59:45.363Z,35.13
2018-10-09T16:02:12.369Z,30.80
2018-10-09T16:04:39.275Z,29.57
2018-10-09T16:07:06.392Z,31.50
2018-10-09T16:09:33.311Z,32.47
2018-10-09T16:12:00.224Z,34.60
2018-10-09T16:14:27.138Z,37.73
2018-10-09T16:16:54.198Z,31.87
2018-10-09T16:19:21.155Z,42.33
2018-10-09T16:21:48.144Z,37.27
2018-10-09T16:24:15.036Z,37.80
2018-10-09T16:26:41.979Z,35.70
2018-10-09T16:29:09.124Z,39.40
2018-10-09T16:31:36.092Z,36.60
2018-10-09T16:34:03.015Z,42.73
2018-10-09T16:36:29.954Z,41.40
2018-10-09T16:38:56.968Z,35.33
2018-10-09T16:41:23.842Z,42.20
2018-10-09T16:43:50.829Z,37.50
2018-10-09T16:46:17.850Z,40.53
2018-10-09T16:48:44.783Z,41.10
2018-10-09T16:51:11.719Z,40.83
2018-10-09T16:53:38.679Z,36.43
2018-10-09T16:56:05.646Z,44.07
2018-10-09T16:58:32.567Z,36.80
2018-10-09T17:00:59.507Z,37.03
2018-10-09T17:03:26.454Z,42.47
2018-10-09T17:05:53.404Z,33.53
2018-10-09T17:08:21.271Z,34.67
2018-10-09T17:10:48.208Z,43.73
2018-10-09T17:13:15.184Z,40.33
2018-10-09T17:15:42.211Z,39.50
2018-10-09T17:18:09.050Z,43.93
2018-10-09T17:20:35.988Z,47.33
2018-10-09T17:23:02.975Z,48.50
2018-10-09T17:25:29.886Z,40.23
2018-10-09T17:27:56.851Z,42.27
2018-10-09T17:30:23.839Z,42.37
2018-10-09T17:32:50.727Z,45.60
2018-10-09T17:35:17.745Z,45.70
2018-10-09T17:37:50.796Z,46.35
2018-10-09T17:40:17.696Z,46.20
2018-10-09T17:42:44.647Z,47.30
2018-10-09T17:45:11.590Z,46.63
2018-10-09T17:47:38.777Z,51.67
2018-10-09T17:50:06.127Z,49.17
2018-10-09T17:52:33.083Z,56.43
2018-10-09T17:54:59.983Z,51.95
2018-10-09T17:57:26.923Z,47.80
2018-10-09T17:59:53.865Z,55.30
2018-10-09T18:02:20.810Z,54.70
2018-10-09T18:04:47.753Z,50.53
2018-10-09T18:07:14.694Z,55.03
2018-10-09T18:09:41.661Z,51.00
2018-10-09T18:12:08.633Z,48.37
2018-10-09T18:14:35.577Z,52.87
2018-10-09T18:17:02.478Z,49.70
2018-10-09T18:19:29.474Z,46.40
2018-10-09T18:21:56.375Z,48.23
2018-10-09T18:24:23.306Z,52.20
2018-10-09T18:26:50.327Z,50.20
2018-10-09T18:29:17.267Z,53.97
2018-10-09T18:31:44.142Z,54.47
2018-10-09T18:34:11.099Z,46.07
2018-10-09T18:36:38.134Z,49.80
2018-10-09T18:39:09.190Z,53.33
2018-10-09T18:41:36.337Z,56.20
2018-10-09T18:44:03.095Z,49.67
2018-10-09T18:46:30.023Z,48.83
2018-10-09T18:48:56.954Z,49.13
2018-10-09T18:51:23.972Z,51.03
2018-10-09T18:53:50.846Z,47.33
2018-10-09T18:56:17.795Z,49.70
2018-10-09T18:58:44.804Z,50.20
2018-10-09T19:01:11.700Z,46.77
2018-10-09T19:03:38.639Z,56.87
2018-10-09T19:06:05.570Z,49.13
2018-10-09T19:08:32.518Z,49.20
2018-10-09T19:10:59.514Z,52.00
2018-10-09T19:13:26.411Z,49.23
2018-10-09T19:15:53.354Z,53.33
2018-10-09T19:18:20.305Z,48.97
2018-10-09T19:20:47.251Z,47.70
2018-10-09T19:23:14.191Z,50.77
2018-10-09T19:25:41.145Z,49.87
2018-10-09T19:28:08.487Z,45.70
2018-10-09T19:30:35.427Z,46.73
2018-10-09T19:33:02.391Z,46.70
2018-10-09T19:35:29.363Z,56.90
2018-10-09T19:37:56.287Z,45.83
2018-10-09T19:40:23.215Z,44.27
2018-10-09T19:42:50.155Z,45.13
2018-10-09T19:45:17.106Z,42.60
2018-10-09T19:47:44.051Z,44.07
2018-10-09T19:50:10.995Z,43.37
2018-10-09T19:52:37.947Z,44.70
2018-10-09T19:55:04.970Z,47.70
2018-10-09T19:57:31.942Z,42.30
2018-10-09T19:59:58.878Z,50.20
2018-10-09T20:02:25.827Z,47.80
2018-10-09T20:04:52.758Z,44.90
2018-10-09T20:07:19.615Z,39.60
2018-10-09T20:09:46.543Z,41.37
2018-10-09T20:12:13.495Z,44.83
2018-10-09T20:14:40.453Z,50.77
2018-10-09T20:17:07.391Z,44.47
2018-10-09T20:19:34.333Z,42.33
2018-10-09T20:22:01.272Z,45.63
2018-10-09T20:24:28.237Z,42.10
2018-10-09T20:26:55.166Z,47.17
2018-10-09T20:29:22.111Z,44.40
2018-10-09T20:31:49.043Z,47.20
2018-10-09T20:34:15.894Z,47.43
2018-10-09T20:36:42.839Z,49.10
2018-10-09T20:39:09.778Z,47.77
2018-10-09T20:41:36.731Z,44.20
2018-10-09T20:44:03.674Z,53.43
2018-10-09T20:46:30.618Z,43.60
2018-10-09T20:48:57.563Z,44.67
2018-10-09T20:51:24.515Z,46.10
2018-10-09T20:53:51.451Z,50.60
2018-10-09T20:56:18.391Z,43.07
2018-10-09T20:58:45.243Z,40.43
2018-10-09T21:01:12.182Z,45.13
2018-10-09T21:03:39.047Z,43.87
2018-10-09T21:06:06.036Z,48.33
2018-10-09T21:08:32.910Z,51.00
2018-10-09T21:10:59.766Z,48.27
2018-10-09T21:13:26.706Z,47.87
2018-10-09T21:15:53.658Z,51.03
2018-10-09T21:18:20.598Z,54.87
2018-10-09T21:20:47.546Z,57.20
2018-10-09T21:23:14.482Z,56.17
2018-10-09T21:25:41.427Z,57.20
2018-10-09T21:28:08.572Z,60.47
2018-10-09T21:30:35.523Z,63.80
2018-10-09T21:33:02.490Z,57.13
2018-10-09T21:35:29.415Z,54.27
2018-10-09T21:37:56.403Z,48.60
2018-10-09T21:40:23.302Z,49.93
2018-10-09T21:42:50.274Z,50.50
2018-10-09T21:45:17.207Z,46.97
2018-10-09T21:47:50.222Z,47.10
2018-10-09T21:50:17.134Z,45.57
2018-10-09T21:52:44.092Z,46.63
2018-10-09T21:55:11.014Z,43.97
2018-10-09T21:57:37.979Z,43.00
2018-10-09T22:00:04.902Z,44.63
2018-10-09T22:02:31.870Z,49.73
2018-10-09T22:04:58.804Z,46.53
2018-10-09T22:07:25.734Z,44.13
2018-10-09T22:09:52.705Z,44.13
2018-10-09T22:12:19.674Z,45.57
2018-10-09T22:14:46.587Z,44.50
2018-10-09T22:17:13.514Z,41.40
2018-10-09T22:19:40.590Z,44.60
2018-10-09T22:22:07.520Z,40.97
2018-10-09T22:24:34.603Z,41.17
2018-10-09T22:27:01.415Z,44.57
2018-10-09T22:29:28.370Z,40.63
2018-10-09T22:31:55.305Z,41.20
2018-10-09T22:34:22.237Z,44.33
2018-10-09T22:36:49.176Z,43.13
2018-10-09T22:39:16.023Z,43.60
2018-10-09T22:41:42.862Z,46.53
2018-10-09T22:44:09.823Z,41.00
2018-10-09T22:46:36.755Z,41.57
2018-10-09T22:49:03.703Z,47.30
2018-10-09T22:51:30.648Z,44.60
2018-10-09T22:53:57.591Z,43.10
2018-10-09T22:56:24.535Z,45.20
2018-10-09T22:58:51.483Z,41.83
2018-10-09T23:01:18.427Z,46.97
2018-10-09T23:03:45.387Z,40.97
2018-10-09T23:06:12.306Z,40.87
2018-10-09T23:08:39.291Z,39.50
2018-10-09T23:11:06.806Z,43.60
2018-10-09T23:13:33.650Z,42.73
2018-10-09T23:16:00.494Z,44.77
2018-10-09T23:18:27.567Z,46.00
2018-10-09T23:20:54.486Z,45.17
2018-10-09T23:23:21.335Z,42.40
2018-10-09T23:25:48.310Z,47.27
2018-10-09T23:28:15.217Z,41.33
2018-10-09T23:30:42.075Z,42.43
2018-10-09T23:33:09.020Z,42.43
2018-10-09T23:35:35.951Z,41.70
2018-10-09T23:38:02.794Z,43.13
2018-10-09T23:40:29.646Z,40.37
2018-10-09T23:42:56.625Z,41.27
2018-10-09T23:45:23.539Z,41.23
2018-10-09T23:48:01.426Z,43.03
2018-10-09T23:50:28.295Z,46.80
2018-10-09T23:52:55.218Z,45.80
2018-10-09T23:55:22.175Z,42.90
2018-10-09T23:57:49.110Z,44.70
